Hauptseite
METAR-TAF:

METAR-TAF

Flughäfen :

Flughafen Bergamo

Bergamo, Italien

Breite: 45-40N, Länge: 009-42E, Höhe: 238 m

Beobachtung

Neuester Wetterbericht von vor 49 Minuten, um 18:50 UTC
Wind 5 kt aus Südwest
Temperatur 6°C
Luftfeuchtigkeit 93%
Luftdruck 1012 hPa
Sichtweite: 9000 m
Aufgelockert bewölkt in der Höhe von 500 ft
Durchbrochene Bewölkung in der Höhe von 1500 ft
Leichtregen,

METAR: LIME 221850Z 23005KT 9000 -RA SCT005 BKN015 06/05 Q1012 NOSIG

Zeit: 21:39 (19:39 UTC)

Prognose

Neuester Wetterbericht von vor 2 Stunden und 39 Minuten, um 17:00 UTC
Gültige Prognose vom 22 um 18 UTC bis 23 um 18 UTC
Wind 7 kt aus West
Sichtweite: 6000 m
Durchbrochene Bewölkung in der Höhe von 1500 ft
Regen,

TAF: LIME 221700Z 2218/2318 26007KT 6000 RA BKN015

Wetterbeobachtungen und Prognosen von mehr als 4000 Flughäfen (METAR und TAF Bericht).

Die verfügbaren Stationen werden durch gelbe und rote Markierungen auf der Karte dargestellt.

Führen Sie die Maus auf sie, um den Namen der Station zu sehen.

Darauf klicken, um die Beobachtung von Wetterbeobachtungen und Prognosen zu sehen.

Um die Karte zu ändern : klicken Sie auf den grünen Tasten mit einem schwarzen Kreuz Zum Vergrößern, auf den grünen Button mit einem Gedankenstrich zu verkleinern, oder auf die grünen Pfeile für benachbarte Karten.


METAR-TAF: